Time;durP1;ratioP1;P1;durP2;ratioP2;P2;SDS_P1;SDS_P2;PMS_P1;PMS_P2;Temp;Humidity;BMP_temperature;BMP_pressure;BME280_temperature;BME280_humidity;BME280_pressure;Samples;Min_cycle;Max_cycle;Signal;HPM_P1;HPM_P2
2021/12/02 00:02:16;;;;;;;18.52;9.20;;;10.50;99.90;;;;;;4984560;28;20034;-73
2021/12/02 00:04:43;;;;;;;13.27;8.65;;;10.50;99.90;;;;;;4982775;28;20087;-74
2021/12/02 00:07:09;;;;;;;13.80;6.53;;;10.40;99.90;;;;;;4991319;28;20029;-74
2021/12/02 00:09:36;;;;;;;14.70;9.88;;;10.40;99.90;;;;;;4983148;28;20031;-75
2021/12/02 00:12:04;;;;;;;10.07;7.55;;;10.40;99.90;;;;;;4987921;28;20029;-74
2021/12/02 00:14:38;;;;;;;13.77;7.60;;;10.40;99.90;;;;;;4986596;28;20199;-75
2021/12/02 00:17:08;;;;;;;13.30;5.55;;;10.40;99.90;;;;;;4986714;28;20361;-75
2021/12/02 00:22:22;;;;;;;9.75;7.25;;;10.40;99.90;;;;;;4989834;28;20096;-75
2021/12/02 00:24:54;;;;;;;10.00;6.30;;;10.40;99.90;;;;;;4989078;28;20022;-74
2021/12/02 00:27:20;;;;;;;10.93;7.20;;;10.40;99.90;;;;;;4990339;28;20026;-73
2021/12/02 00:29:46;;;;;;;12.25;5.68;;;10.40;99.90;;;;;;4983640;28;20116;-74
2021/12/02 00:32:12;;;;;;;11.48;5.90;;;10.40;99.90;;;;;;4984874;28;20477;-74
2021/12/02 00:34:44;;;;;;;10.73;6.00;;;10.40;99.90;;;;;;4988743;28;20038;-74
2021/12/02 00:37:10;;;;;;;;;;;10.40;99.90;;;;;;4984893;28;20104;-73
2021/12/02 00:39:37;;;;;;;11.90;6.35;;;10.40;99.90;;;;;;4992056;28;19955;-73
2021/12/02 00:42:04;;;;;;;9.05;5.47;;;10.40;99.90;;;;;;4981374;28;20391;-73
2021/12/02 00:44:32;;;;;;;12.07;5.03;;;10.30;99.90;;;;;;4985975;28;20026;-74
2021/12/02 00:47:00;;;;;;;12.20;5.55;;;10.30;99.90;;;;;;4987528;28;20032;-73
2021/12/02 00:49:26;;;;;;;18.27;7.95;;;10.40;99.90;;;;;;4984267;28;20026;-73
2021/12/02 00:51:54;;;;;;;12.90;5.78;;;10.40;99.90;;;;;;4987875;28;20044;-74
2021/12/02 00:54:23;;;;;;;18.13;5.40;;;10.40;99.90;;;;;;4988166;28;20102;-74
2021/12/02 00:56:50;;;;;;;10.73;5.25;;;10.40;99.90;;;;;;4987787;28;20102;-74
2021/12/02 00:59:17;;;;;;;14.15;5.95;;;10.40;99.90;;;;;;4988821;28;20645;-73
2021/12/02 01:01:44;;;;;;;8.75;5.10;;;10.40;99.90;;;;;;4994035;28;20030;-73
2021/12/02 01:04:15;;;;;;;11.00;5.57;;;10.30;99.90;;;;;;4992153;28;20639;-74
2021/12/02 01:06:42;;;;;;;10.77;5.82;;;10.40;99.90;;;;;;4992356;28;20030;-74
2021/12/02 01:09:10;;;;;;;9.75;4.65;;;10.40;99.90;;;;;;4989930;28;20041;-74
2021/12/02 01:11:36;;;;;;;14.05;6.45;;;10.40;99.90;;;;;;4991566;28;20341;-74
2021/12/02 01:14:03;;;;;;;18.70;5.53;;;10.40;99.90;;;;;;4991797;28;20019;-73
2021/12/02 01:16:28;;;;;;;17.10;5.78;;;10.40;99.90;;;;;;4992294;28;20022;-73
2021/12/02 01:18:55;;;;;;;12.50;4.55;;;10.40;99.90;;;;;;4993615;28;20459;-73
2021/12/02 01:21:22;;;;;;;21.83;5.32;;;10.40;99.90;;;;;;4992710;28;20066;-72
2021/12/02 01:23:57;;;;;;;14.40;4.72;;;10.40;99.90;;;;;;4991894;28;20499;-73
2021/12/02 01:26:23;;;;;;;11.20;5.30;;;10.40;99.90;;;;;;4991506;28;20022;-73
2021/12/02 01:28:50;;;;;;;13.02;5.40;;;10.40;99.90;;;;;;4992185;28;20053;-74
2021/12/02 01:31:17;;;;;;;14.85;5.65;;;10.40;99.90;;;;;;4992456;28;20076;-73
2021/12/02 01:33:45;;;;;;;16.45;6.05;;;10.50;99.90;;;;;;5007119;28;20481;-73
2021/12/02 01:36:12;;;;;;;19.08;5.97;;;10.40;99.90;;;;;;4988178;28;20054;-72
2021/12/02 01:38:38;;;;;;;16.77;5.55;;;10.40;99.90;;;;;;4987220;28;20523;-73
2021/12/02 01:41:05;;;;;;;19.15;5.88;;;10.40;99.90;;;;;;4989235;28;20054;-73
2021/12/02 01:43:52;;;;;;;19.95;5.90;;;10.40;99.90;;;;;;4988351;28;20082;-73
2021/12/02 01:46:21;;;;;;;14.63;4.63;;;10.50;99.90;;;;;;4990683;28;20030;-72
2021/12/02 01:48:51;;;;;;;12.05;5.35;;;10.50;99.90;;;;;;4989049;28;20033;-75
2021/12/02 01:51:19;;;;;;;15.75;4.88;;;10.60;99.90;;;;;;4992117;28;20103;-74
2021/12/02 01:53:50;;;;;;;13.52;5.50;;;10.50;99.90;;;;;;4993118;28;20042;-74
2021/12/02 01:56:17;;;;;;;14.63;5.07;;;10.50;99.90;;;;;;4992814;28;20077;-74
2021/12/02 01:58:46;;;;;;;10.30;4.65;;;10.60;99.90;;;;;;4989932;28;20034;-73
2021/12/02 02:01:34;;;;;;;10.68;3.50;;;10.50;99.90;;;;;;4989425;28;20504;-73
2021/12/02 02:04:01;;;;;;;15.50;5.18;;;10.50;99.90;;;;;;4993348;28;20119;-74
2021/12/02 02:06:36;;;;;;;12.90;4.60;;;10.50;99.90;;;;;;4990862;28;20065;-74
2021/12/02 02:09:05;;;;;;;11.18;5.28;;;10.50;99.90;;;;;;4990677;28;20086;-74
2021/12/02 02:11:31;;;;;;;12.43;4.80;;;10.50;99.90;;;;;;4990135;28;20184;-73
2021/12/02 02:13:59;;;;;;;11.65;5.00;;;10.40;99.90;;;;;;4988095;28;20031;-72
2021/12/02 02:16:26;;;;;;;15.68;5.35;;;10.40;99.90;;;;;;4988023;28;20493;-74
2021/12/02 02:18:52;;;;;;;10.00;4.53;;;10.40;99.90;;;;;;4989949;28;20022;-74
2021/12/02 02:21:21;;;;;;;9.68;3.45;;;10.40;99.90;;;;;;4991655;28;20380;-75
2021/12/02 02:23:58;;;;;;;18.80;4.55;;;10.40;99.90;;;;;;4987999;28;20054;-74
2021/12/02 02:26:36;;;;;;;9.48;4.72;;;10.40;99.90;;;;;;4986458;28;20370;-73
2021/12/02 02:29:05;;;;;;;8.85;4.15;;;10.40;99.90;;;;;;4990821;28;20505;-75
2021/12/02 02:31:32;;;;;;;6.68;3.55;;;10.40;99.90;;;;;;4989457;28;20101;-73
2021/12/02 02:33:59;;;;;;;6.95;3.70;;;10.40;99.90;;;;;;4989320;28;20029;-74
2021/12/02 02:36:28;;;;;;;13.80;4.00;;;10.50;99.90;;;;;;4990226;28;20022;-74
2021/12/02 02:38:58;;;;;;;12.27;3.85;;;10.50;99.90;;;;;;4991501;28;20026;-73
2021/12/02 02:41:33;;;;;;;6.60;3.47;;;10.50;99.90;;;;;;4988766;28;20022;-73
2021/12/02 02:44:00;;;;;;;13.73;3.85;;;10.50;99.90;;;;;;4995211;28;20062;-74
2021/12/02 02:46:31;;;;;;;18.38;4.13;;;10.60;99.90;;;;;;4992047;28;20030;-73
2021/12/02 02:48:59;;;;;;;10.88;3.63;;;10.60;99.90;;;;;;4992337;28;20023;-74
2021/12/02 02:51:26;;;;;;;10.77;3.65;;;10.50;99.90;;;;;;4983756;28;20061;-74
2021/12/02 02:53:55;;;;;;;14.55;4.45;;;10.60;99.90;;;;;;4996574;28;20026;-74
2021/12/02 02:56:23;;;;;;;10.65;3.38;;;10.60;99.90;;;;;;4993722;28;20042;-73
2021/12/02 03:12:06;;;;;;;11.05;4.68;;;10.50;99.90;;;;;;4992295;28;20034;-74
2021/12/02 03:14:48;;;;;;;8.60;5.03;;;10.60;99.90;;;;;;4989487;28;20026;-73
2021/12/02 03:17:14;;;;;;;9.95;4.45;;;10.60;99.90;;;;;;4988241;28;20030;-75
2021/12/02 03:19:42;;;;;;;11.60;5.07;;;10.60;99.90;;;;;;4990035;28;20033;-73
2021/12/02 03:22:08;;;;;;;11.25;4.88;;;10.60;99.90;;;;;;4985737;28;20536;-75
2021/12/02 03:24:33;;;;;;;11.82;5.07;;;10.50;99.90;;;;;;4990601;28;20122;-75
2021/12/02 03:26:59;;;;;;;13.15;4.28;;;10.50;99.90;;;;;;4986229;28;20426;-74
2021/12/02 03:29:25;;;;;;;13.80;4.50;;;10.40;99.90;;;;;;4991810;28;20133;-74
2021/12/02 03:31:51;;;;;;;12.30;3.22;;;10.40;99.90;;;;;;4992672;28;20022;-75
2021/12/02 03:34:17;;;;;;;9.98;3.42;;;10.40;99.90;;;;;;4996839;28;20030;-75
2021/12/02 03:36:43;;;;;;;12.52;4.82;;;10.50;99.90;;;;;;4990052;28;20050;-74
2021/12/02 03:39:11;;;;;;;7.30;4.13;;;10.60;99.90;;;;;;4988408;28;20046;-75
2021/12/02 03:41:39;;;;;;;13.40;3.90;;;10.60;99.90;;;;;;4988281;28;20102;-75
2021/12/02 03:44:05;;;;;;;14.40;5.03;;;10.60;99.90;;;;;;4990928;28;20213;-76
2021/12/02 03:46:31;;;;;;;17.40;6.00;;;10.50;99.90;;;;;;4987663;28;20148;-74
2021/12/02 03:48:58;;;;;;;12.25;5.35;;;10.60;99.90;;;;;;4987010;28;20811;-74
2021/12/02 03:51:24;;;;;;;12.88;4.88;;;10.60;99.90;;;;;;4985949;28;20026;-74
2021/12/02 03:53:53;;;;;;;12.85;5.03;;;10.50;99.90;;;;;;4991886;28;20029;-75
2021/12/02 03:56:19;;;;;;;11.75;4.45;;;10.60;99.90;;;;;;4988439;28;20033;-74
2021/12/02 03:58:46;;;;;;;10.45;4.15;;;10.60;99.90;;;;;;4986499;28;20030;-74
2021/12/02 04:01:13;;;;;;;9.95;4.47;;;10.60;99.90;;;;;;4983647;28;20064;-76
2021/12/02 04:03:39;;;;;;;20.85;6.68;;;10.80;99.90;;;;;;4985431;28;20033;-76
2021/12/02 04:06:07;;;;;;;13.32;5.10;;;10.70;99.90;;;;;;4988147;28;20038;-74
2021/12/02 04:16:29;;;;;;;11.10;4.32;;;10.60;99.90;;;;;;4987609;28;20061;-76
2021/12/02 04:18:57;;;;;;;10.60;4.30;;;10.60;99.90;;;;;;4989043;28;20065;-75
2021/12/02 04:21:23;;;;;;;13.30;4.25;;;10.70;99.90;;;;;;4989312;28;20037;-75
2021/12/02 04:23:49;;;;;;;14.63;5.50;;;10.70;99.90;;;;;;4990740;28;20026;-75
2021/12/02 04:26:15;;;;;;;15.80;4.60;;;10.70;99.90;;;;;;4993950;28;20117;-75
2021/12/02 04:28:40;;;;;;;14.65;4.40;;;10.70;99.90;;;;;;4994897;28;20109;-74
2021/12/02 04:31:06;;;;;;;15.75;4.55;;;10.80;99.90;;;;;;5004656;28;20769;-74
2021/12/02 04:33:32;;;;;;;18.83;4.38;;;10.80;99.90;;;;;;4989744;28;20081;-75
2021/12/02 04:36:00;;;;;;;14.57;5.20;;;10.80;99.90;;;;;;4987745;28;20025;-74
2021/12/02 04:38:27;;;;;;;24.17;4.43;;;10.80;99.90;;;;;;4992676;28;20112;-75
2021/12/02 04:40:53;;;;;;;17.23;4.30;;;10.80;99.90;;;;;;4988159;28;20023;-74
2021/12/02 04:43:18;;;;;;;20.38;7.05;;;10.80;99.90;;;;;;4987237;28;20028;-75
2021/12/02 04:45:45;;;;;;;17.58;4.10;;;10.90;99.90;;;;;;4986010;28;20121;-74
2021/12/02 04:48:10;;;;;;;22.17;5.57;;;10.90;99.90;;;;;;4987996;28;20485;-74
2021/12/02 04:50:36;;;;;;;13.40;4.93;;;10.90;99.90;;;;;;4991623;28;20025;-75
2021/12/02 04:53:03;;;;;;;20.02;5.13;;;11.00;99.90;;;;;;4986554;28;20157;-75
2021/12/02 04:55:29;;;;;;;25.73;6.97;;;11.00;99.90;;;;;;4986677;28;20045;-76
2021/12/02 04:57:55;;;;;;;27.45;5.95;;;10.90;99.90;;;;;;4981446;28;20066;-77
2021/12/02 05:00:21;;;;;;;19.92;4.93;;;10.90;99.90;;;;;;4986896;28;20022;-75
2021/12/02 05:02:46;;;;;;;19.08;4.45;;;10.90;99.90;;;;;;4989522;28;20030;-76
2021/12/02 05:05:13;;;;;;;25.35;4.70;;;10.90;99.90;;;;;;4990464;28;20109;-76
2021/12/02 05:07:38;;;;;;;13.77;5.93;;;10.90;99.90;;;;;;4981190;28;20038;-77
2021/12/02 05:10:06;;;;;;;14.45;3.97;;;10.90;99.90;;;;;;4989181;28;20018;-77
2021/12/02 05:12:32;;;;;;;16.80;5.18;;;11.00;99.90;;;;;;4987425;28;20034;-77
2021/12/02 05:14:57;;;;;;;19.48;7.53;;;11.00;99.90;;;;;;4986982;28;20030;-75
2021/12/02 05:17:23;;;;;;;31.10;7.25;;;11.00;99.90;;;;;;4988335;28;20029;-76
2021/12/02 05:19:49;;;;;;;18.38;6.43;;;11.00;99.90;;;;;;4988610;28;20031;-77
2021/12/02 05:22:15;;;;;;;22.77;5.80;;;11.00;99.90;;;;;;4988173;28;20034;-75
2021/12/02 05:24:41;;;;;;;21.48;7.22;;;11.00;99.90;;;;;;4988483;28;20038;-75
2021/12/02 05:27:07;;;;;;;17.67;6.10;;;11.00;99.90;;;;;;4987533;28;20495;-76
2021/12/02 05:29:33;;;;;;;8.23;4.85;;;11.00;99.90;;;;;;4988194;28;20116;-75
2021/12/02 05:32:00;;;;;;;22.83;5.97;;;11.00;99.90;;;;;;4985903;28;20509;-75
2021/12/02 05:34:26;;;;;;;9.60;5.65;;;11.00;99.90;;;;;;4991261;28;20031;-76
2021/12/02 05:36:51;;;;;;;26.80;5.88;;;11.00;99.90;;;;;;4986471;28;20104;-75
2021/12/02 05:39:17;;;;;;;16.85;5.45;;;11.00;99.90;;;;;;4992862;28;20030;-76
2021/12/02 05:41:43;;;;;;;18.90;5.18;;;11.00;99.90;;;;;;4984002;28;20023;-76
2021/12/02 05:44:09;;;;;;;24.50;5.43;;;11.00;99.90;;;;;;4987043;28;20014;-76
2021/12/02 05:46:35;;;;;;;20.33;5.45;;;11.10;99.90;;;;;;4987186;28;20017;-75
2021/12/02 05:49:00;;;;;;;27.60;5.75;;;11.00;99.90;;;;;;4988908;28;20526;-75
2021/12/02 05:51:26;;;;;;;15.68;5.45;;;11.10;99.90;;;;;;5001264;28;20475;-75
2021/12/02 05:53:53;;;;;;;14.63;5.53;;;11.10;99.90;;;;;;4989450;28;20489;-75
2021/12/02 05:56:19;;;;;;;20.80;7.65;;;11.10;99.90;;;;;;4990902;28;20030;-74
2021/12/02 05:58:45;;;;;;;23.98;6.47;;;11.00;99.90;;;;;;4993161;28;20150;-75
2021/12/02 06:01:10;;;;;;;17.98;6.72;;;11.10;99.90;;;;;;4990938;28;20018;-76
2021/12/02 06:03:37;;;;;;;26.45;6.80;;;11.00;99.90;;;;;;4991381;28;20034;-76
2021/12/02 06:06:06;;;;;;;17.92;6.28;;;11.00;99.90;;;;;;4990767;28;20050;-76
2021/12/02 06:08:33;;;;;;;19.52;6.85;;;11.00;99.90;;;;;;4992025;28;20126;-75
2021/12/02 06:10:58;;;;;;;23.10;6.88;;;11.00;99.90;;;;;;4992374;28;20027;-75
2021/12/02 06:13:25;;;;;;;21.80;7.90;;;11.10;99.90;;;;;;4989638;28;20117;-75
2021/12/02 06:15:52;;;;;;;15.50;5.60;;;11.10;99.90;;;;;;4989917;28;20100;-78
2021/12/02 06:18:18;;;;;;;31.20;6.28;;;11.10;99.90;;;;;;4988525;28;20102;-74
2021/12/02 06:20:47;;;;;;;18.63;6.50;;;11.10;99.90;;;;;;4991925;28;20085;-74
2021/12/02 06:23:13;;;;;;;21.38;6.20;;;11.10;99.90;;;;;;4990489;28;20123;-74
2021/12/02 06:28:05;;;;;;;17.92;6.78;;;11.10;99.90;;;;;;4987349;28;20045;-74
2021/12/02 06:30:32;;;;;;;13.68;7.45;;;11.10;99.90;;;;;;4988457;28;20434;-76
2021/12/02 06:32:58;;;;;;;18.13;9.43;;;11.10;99.90;;;;;;4987328;28;20023;-74
2021/12/02 06:35:23;;;;;;;11.25;6.70;;;11.10;99.90;;;;;;4988488;28;20026;-74
2021/12/02 06:37:50;;;;;;;14.85;7.85;;;11.20;99.90;;;;;;4988167;28;20062;-74
2021/12/02 06:40:16;;;;;;;20.00;7.88;;;11.20;99.90;;;;;;4989040;28;20046;-74
2021/12/02 06:42:42;;;;;;;15.23;9.45;;;11.20;99.90;;;;;;4990060;28;20022;-74
2021/12/02 06:45:10;;;;;;;22.45;8.88;;;11.20;99.90;;;;;;4988796;28;20030;-74
2021/12/02 06:47:40;;;;;;;15.93;8.65;;;11.20;99.90;;;;;;4988577;28;20543;-74
2021/12/02 06:50:18;;;;;;;19.02;8.63;;;11.20;99.90;;;;;;4988524;28;20045;-73
2021/12/02 06:52:48;;;;;;;22.67;7.72;;;11.20;99.90;;;;;;4988952;28;20030;-73
2021/12/02 06:55:14;;;;;;;23.58;8.73;;;11.10;99.90;;;;;;4990671;28;20031;-74
2021/12/02 06:57:40;;;;;;;13.93;7.60;;;11.10;99.90;;;;;;4989261;28;20037;-73
2021/12/02 07:00:09;;;;;;;21.00;8.52;;;11.10;99.90;;;;;;4990394;28;20037;-73
2021/12/02 07:02:35;;;;;;;20.80;9.90;;;11.00;99.90;;;;;;4990025;28;20038;-75
2021/12/02 07:05:02;;;;;;;24.67;11.73;;;11.00;99.90;;;;;;4991446;28;20030;-73
2021/12/02 07:07:32;;;;;;;14.90;12.55;;;10.90;99.90;;;;;;4988802;28;20034;-73
2021/12/02 07:09:59;;;;;;;24.77;16.17;;;10.80;99.90;;;;;;4991376;28;20029;-74
2021/12/02 07:12:31;;;;;;;25.38;14.82;;;10.70;99.90;;;;;;4989364;28;20109;-74
2021/12/02 07:14:58;;;;;;;24.80;13.80;;;10.70;99.90;;;;;;4992081;28;20022;-75
2021/12/02 07:17:25;;;;;;;20.05;16.88;;;10.60;99.90;;;;;;4989259;28;20428;-74
2021/12/02 07:19:50;;;;;;;17.67;14.65;;;10.60;99.90;;;;;;4988681;28;20022;-76
2021/12/02 07:22:16;;;;;;;23.98;15.45;;;10.50;99.90;;;;;;4991004;28;20548;-73
2021/12/02 07:24:42;;;;;;;22.30;17.00;;;10.40;99.90;;;;;;4991193;28;20094;-74
2021/12/02 07:27:08;;;;;;;17.98;15.57;;;10.40;99.90;;;;;;4987492;28;20054;-73
2021/12/02 07:29:35;;;;;;;18.58;16.52;;;10.40;99.90;;;;;;4990963;28;20038;-74
2021/12/02 07:32:02;;;;;;;21.40;17.70;;;10.30;99.90;;;;;;4987900;28;20077;-73
2021/12/02 07:34:33;;;;;;;28.88;19.08;;;10.40;99.90;;;;;;4987586;28;20037;-74
2021/12/02 07:37:00;;;;;;;22.02;16.67;;;10.30;99.90;;;;;;4985869;28;20117;-75
2021/12/02 07:39:28;;;;;;;15.25;13.63;;;10.30;99.90;;;;;;4990502;28;20090;-73
2021/12/02 07:41:54;;;;;;;13.85;12.40;;;10.30;99.90;;;;;;4990517;28;20038;-74
2021/12/02 07:44:21;;;;;;;18.85;13.80;;;10.30;99.90;;;;;;4990192;28;20034;-74
2021/12/02 07:46:46;;;;;;;16.23;13.23;;;10.30;99.90;;;;;;4987564;28;20113;-74
2021/12/02 07:49:13;;;;;;;21.83;12.57;;;10.20;99.90;;;;;;4986076;28;20070;-75
2021/12/02 07:51:43;;;;;;;16.15;11.98;;;10.20;99.90;;;;;;4987654;28;20425;-73
2021/12/02 07:54:11;;;;;;;13.77;10.63;;;10.30;99.90;;;;;;4990978;28;20053;-74
2021/12/02 07:56:37;;;;;;;15.35;10.88;;;10.30;99.90;;;;;;4990573;28;20026;-73
2021/12/02 07:59:03;;;;;;;15.82;10.15;;;10.30;99.90;;;;;;4988568;28;20053;-75
2021/12/02 08:01:30;;;;;;;15.93;10.25;;;10.30;99.90;;;;;;4988135;28;20027;-74
2021/12/02 08:03:55;;;;;;;12.85;8.23;;;10.30;99.90;;;;;;4987698;28;20050;-74
2021/12/02 08:06:23;;;;;;;15.05;7.53;;;10.30;99.90;;;;;;4990245;28;20420;-75
2021/12/02 08:08:49;;;;;;;12.55;8.55;;;10.30;99.90;;;;;;5006631;28;20431;-74
2021/12/02 08:11:15;;;;;;;13.75;8.15;;;10.20;99.90;;;;;;4994754;28;20038;-75
2021/12/02 08:13:41;;;;;;;14.50;8.93;;;10.20;99.90;;;;;;4992983;28;20030;-74
2021/12/02 08:16:07;;;;;;;20.80;7.43;;;10.30;99.90;;;;;;4987368;28;20022;-77
2021/12/02 08:18:35;;;;;;;11.43;5.43;;;10.20;99.90;;;;;;4987483;28;20022;-75
2021/12/02 08:21:01;;;;;;;15.88;6.82;;;10.20;99.90;;;;;;4988924;28;20124;-74
2021/12/02 08:23:28;;;;;;;7.72;4.30;;;10.10;99.90;;;;;;4990039;28;20114;-75
2021/12/02 08:25:55;;;;;;;7.30;4.30;;;10.20;99.90;;;;;;4989201;28;20065;-74
2021/12/02 08:28:21;;;;;;;8.50;3.78;;;10.20;99.90;;;;;;4982968;28;20023;-74
2021/12/02 08:30:49;;;;;;;7.13;3.30;;;10.20;99.90;;;;;;4989650;28;20048;-74
2021/12/02 08:33:17;;;;;;;4.80;3.38;;;10.40;99.90;;;;;;4988359;28;20115;-74
2021/12/02 08:35:43;;;;;;;6.63;3.47;;;10.40;99.90;;;;;;4988346;28;20492;-74
2021/12/02 08:38:11;;;;;;;5.60;3.50;;;10.40;99.90;;;;;;4987811;28;20038;-74
2021/12/02 08:40:39;;;;;;;7.00;3.88;;;10.50;99.90;;;;;;4989276;28;20141;-75
2021/12/02 08:43:09;;;;;;;10.02;3.65;;;10.60;99.90;;;;;;4989740;28;20061;-74
2021/12/02 08:45:37;;;;;;;7.95;3.45;;;10.70;99.90;;;;;;4987496;28;20119;-74
2021/12/02 08:48:04;;;;;;;6.75;3.10;;;10.80;99.90;;;;;;4988049;28;20037;-74
2021/12/02 08:50:30;;;;;;;12.32;3.53;;;10.80;99.90;;;;;;4987312;28;20026;-73
2021/12/02 08:52:57;;;;;;;5.72;2.90;;;10.80;99.90;;;;;;4989185;28;20085;-74
2021/12/02 08:55:24;;;;;;;6.30;3.40;;;10.80;99.90;;;;;;4986617;28;20027;-74
2021/12/02 08:57:52;;;;;;;4.82;2.55;;;10.70;99.90;;;;;;4986985;28;20030;-75
2021/12/02 09:00:22;;;;;;;3.00;2.38;;;10.80;99.90;;;;;;4986396;28;20404;-75
2021/12/02 09:02:48;;;;;;;3.53;3.03;;;10.90;99.90;;;;;;4989421;28;20069;-74
2021/12/02 09:05:15;;;;;;;7.43;3.30;;;10.90;99.90;;;;;;4989824;28;20034;-74
2021/12/02 09:07:40;;;;;;;3.83;2.53;;;10.90;99.90;;;;;;4988824;28;20054;-73
2021/12/02 09:10:08;;;;;;;8.02;3.22;;;10.90;99.90;;;;;;4988855;28;20061;-74
2021/12/02 09:12:34;;;;;;;4.80;3.42;;;11.00;99.90;;;;;;4988525;28;20114;-73
2021/12/02 09:15:00;;;;;;;5.97;3.10;;;11.20;99.90;;;;;;4987515;28;20624;-74
2021/12/02 09:17:25;;;;;;;5.60;3.72;;;11.20;99.90;;;;;;4989244;28;20041;-74
2021/12/02 09:19:51;;;;;;;5.85;3.10;;;11.10;99.90;;;;;;4984328;28;20024;-74
2021/12/02 09:22:17;;;;;;;2.65;2.45;;;11.10;99.90;;;;;;4994009;28;20030;-74
2021/12/02 09:24:43;;;;;;;7.35;2.78;;;11.10;99.90;;;;;;4992944;28;20037;-73
2021/12/02 09:27:09;;;;;;;6.38;3.65;;;11.10;99.90;;;;;;4988992;28;20030;-73
2021/12/02 09:29:35;;;;;;;4.50;3.10;;;11.10;99.90;;;;;;4992045;28;20092;-74
2021/12/02 09:32:02;;;;;;;4.28;2.50;;;11.40;99.90;;;;;;4992042;28;20038;-73
2021/12/02 09:34:28;;;;;;;3.55;2.35;;;11.50;99.90;;;;;;4991605;28;20492;-73
2021/12/02 09:36:55;;;;;;;4.68;2.67;;;11.50;99.90;;;;;;4990964;28;20057;-74
2021/12/02 09:39:21;;;;;;;4.57;2.00;;;11.70;99.90;;;;;;4991455;28;20033;-74
2021/12/02 09:41:47;;;;;;;3.20;2.83;;;11.90;99.90;;;;;;4991490;28;20030;-74
2021/12/02 09:44:14;;;;;;;3.28;2.05;;;11.90;99.90;;;;;;4993634;28;20034;-74
2021/12/02 09:46:41;;;;;;;3.42;2.53;;;12.10;99.90;;;;;;4991523;28;20022;-73
2021/12/02 09:49:09;;;;;;;10.55;3.03;;;12.00;99.90;;;;;;4987904;28;20042;-73
2021/12/02 09:54:31;;;;;;;4.22;3.65;;;11.80;99.90;;;;;;4986487;28;20042;-74
2021/12/02 09:57:01;;;;;;;13.07;7.82;;;11.70;99.90;;;;;;4994028;28;20023;-73
2021/12/02 09:59:31;;;;;;;22.15;14.48;;;11.70;99.90;;;;;;4988907;28;20038;-74
2021/12/02 10:02:08;;;;;;;8.57;6.63;;;11.70;99.90;;;;;;4991398;28;20029;-68
2021/12/02 10:04:40;;;;;;;31.45;17.65;;;11.60;99.90;;;;;;4993342;28;20026;-69
2021/12/02 10:07:07;;;;;;;;;;;11.50;99.90;;;;;;4991120;28;20895;-69
2021/12/02 10:09:50;;;;;;;47.35;29.92;;;11.40;99.90;;;;;;4991972;28;20240;-70
2021/12/02 10:12:22;;;;;;;33.63;22.88;;;11.30;99.90;;;;;;4990750;28;20034;-69
2021/12/02 10:14:58;;;;;;;85.95;55.63;;;11.40;99.90;;;;;;4992247;28;20030;-69
2021/12/02 10:17:37;;;;;;;27.75;16.80;;;11.40;99.90;;;;;;4994365;28;20537;-69
2021/12/02 10:20:22;;;;;;;51.95;30.38;;;11.40;99.90;;;;;;4987871;28;20027;-69
2021/12/02 10:23:12;;;;;;;80.15;36.90;;;11.40;99.90;;;;;;4987627;28;20129;-70
2021/12/02 10:25:38;;;;;;;62.75;40.13;;;11.40;99.90;;;;;;4990806;28;20050;-69
2021/12/02 10:28:15;;;;;;;99.75;66.40;;;11.40;99.90;;;;;;4987358;28;20161;-69
2021/12/02 10:30:47;;;;;;;25.63;19.40;;;11.60;99.90;;;;;;4991619;28;20100;-64
2021/12/02 10:33:13;;;;;;;99.82;72.15;;;11.60;99.90;;;;;;4991036;28;20475;-65
2021/12/02 10:35:48;;;;;;;97.28;69.68;;;11.60;99.90;;;;;;4990707;28;20038;-64
2021/12/02 10:38:33;;;;;;;16.50;14.65;;;11.80;99.90;;;;;;4990855;28;20492;-65
2021/12/02 10:41:03;;;;;;;46.85;35.78;;;11.80;99.90;;;;;;4988464;28;20022;-64
2021/12/02 10:43:29;;;;;;;30.90;22.38;;;11.50;99.90;;;;;;4989373;28;20455;-65
2021/12/02 10:46:19;;;;;;;16.67;11.48;;;11.40;99.90;;;;;;4987656;28;20038;-64
2021/12/02 10:48:51;;;;;;;20.27;9.75;;;11.20;99.90;;;;;;4983743;28;20465;-64
2021/12/02 10:51:44;;;;;;;33.85;25.25;;;11.00;99.90;;;;;;4983645;28;20034;-64
2021/12/02 10:54:13;;;;;;;42.63;28.95;;;11.20;99.90;;;;;;4982635;28;20034;-65
2021/12/02 10:56:46;;;;;;;13.85;11.02;;;11.60;99.90;;;;;;4983720;28;20023;-65
2021/12/02 10:59:30;;;;;;;18.52;14.15;;;11.60;99.90;;;;;;4983666;28;20097;-69
2021/12/02 11:02:25;;;;;;;28.65;18.77;;;11.80;99.90;;;;;;4984355;28;20034;-69
2021/12/02 11:05:01;;;;;;;24.67;17.15;;;12.00;99.90;;;;;;4985395;28;20054;-70
2021/12/02 11:07:39;;;;;;;22.98;16.35;;;12.30;99.90;;;;;;4983366;28;20129;-70
2021/12/02 11:10:14;;;;;;;10.43;7.75;;;12.50;99.90;;;;;;4985907;28;20033;-71
2021/12/02 11:12:42;;;;;;;14.70;11.27;;;12.40;99.90;;;;;;4988595;28;20034;-70
2021/12/02 11:15:10;;;;;;;13.35;9.55;;;12.40;99.90;;;;;;4989494;28;20037;-70
2021/12/02 11:17:49;;;;;;;14.80;9.07;;;12.30;99.90;;;;;;4988155;28;20030;-71
2021/12/02 11:20:25;;;;;;;14.50;11.80;;;12.30;99.90;;;;;;4988809;28;20492;-71
2021/12/02 11:23:12;;;;;;;21.20;11.10;;;12.20;99.90;;;;;;4991639;28;20034;-70
2021/12/02 11:25:56;;;;;;;14.13;9.25;;;12.20;99.90;;;;;;4983978;28;20489;-70
2021/12/02 11:28:24;;;;;;;13.90;11.18;;;12.10;99.90;;;;;;4984027;28;20108;-71
2021/12/02 11:30:49;;;;;;;14.63;10.40;;;12.00;99.90;;;;;;4983149;28;20072;-69
2021/12/02 11:33:19;;;;;;;11.38;9.05;;;12.20;99.90;;;;;;4986577;28;20034;-71
2021/12/02 11:35:47;;;;;;;9.10;7.80;;;12.00;99.90;;;;;;4982395;28;20022;-70
2021/12/02 11:38:23;;;;;;;10.73;8.20;;;11.80;99.90;;;;;;4987481;28;20026;-70
2021/12/02 11:40:52;;;;;;;15.40;10.25;;;11.70;99.90;;;;;;4989211;28;20145;-71
2021/12/02 11:43:21;;;;;;;11.70;10.25;;;11.50;99.90;;;;;;4991072;28;20515;-72
2021/12/02 11:45:49;;;;;;;12.07;10.88;;;11.50;99.90;;;;;;4990357;28;20052;-72
2021/12/02 11:48:18;;;;;;;9.88;8.90;;;11.40;99.90;;;;;;4991624;28;20228;-71
2021/12/02 11:50:45;;;;;;;15.43;10.38;;;11.30;99.90;;;;;;4988678;28;20046;-71
2021/12/02 11:53:11;;;;;;;15.80;9.07;;;11.30;99.90;;;;;;4992973;28;20034;-71
2021/12/02 11:55:40;;;;;;;11.30;10.05;;;11.30;99.90;;;;;;4995222;28;20022;-72
2021/12/02 11:58:07;;;;;;;9.80;8.02;;;11.30;99.90;;;;;;4989853;28;20033;-71
2021/12/02 12:00:34;;;;;;;10.10;7.57;;;11.40;99.90;;;;;;4989889;28;20038;-72
2021/12/02 12:03:12;;;;;;;13.68;9.05;;;11.30;99.90;;;;;;4991094;28;20089;-71
2021/12/02 12:05:45;;;;;;;11.23;8.55;;;11.40;99.90;;;;;;4991664;28;20069;-71
2021/12/02 12:08:32;;;;;;;9.57;8.18;;;11.40;99.90;;;;;;5001070;28;20121;-71
2021/12/02 12:11:17;;;;;;;11.15;10.07;;;11.50;99.90;;;;;;4988628;28;20029;-71
2021/12/02 12:13:48;;;;;;;13.20;10.40;;;11.50;99.90;;;;;;4989271;28;20064;-72
2021/12/02 12:16:23;;;;;;;14.90;12.33;;;11.40;99.90;;;;;;4978763;28;20026;-72
2021/12/02 12:18:49;;;;;;;10.35;9.43;;;11.50;99.90;;;;;;4991354;28;20465;-72
2021/12/02 12:21:15;;;;;;;14.50;10.27;;;11.50;99.90;;;;;;4991877;28;20042;-72
2021/12/02 12:23:56;;;;;;;12.60;9.80;;;11.50;99.90;;;;;;4993164;28;20042;-71
2021/12/02 12:26:37;;;;;;;12.10;10.00;;;11.50;99.90;;;;;;4991143;28;20416;-73
2021/12/02 12:29:06;;;;;;;11.77;9.65;;;11.50;99.90;;;;;;4987417;28;20038;-72
2021/12/02 12:31:53;;;;;;;14.30;9.55;;;11.40;99.90;;;;;;4985376;28;20034;-72
2021/12/02 12:34:42;;;;;;;12.02;7.90;;;11.40;99.90;;;;;;4983533;28;20376;-70
2021/12/02 12:37:24;;;;;;;10.50;5.80;;;11.30;99.90;;;;;;4985197;28;20034;-71
2021/12/02 12:40:05;;;;;;;7.10;4.80;;;11.30;99.90;;;;;;4989120;28;20085;-71
2021/12/02 12:42:31;;;;;;;12.25;5.25;;;11.30;99.90;;;;;;4990985;28;20038;-71
2021/12/02 12:44:59;;;;;;;8.10;5.10;;;11.30;99.90;;;;;;4988043;28;20023;-71
2021/12/02 12:47:46;;;;;;;7.10;6.18;;;11.30;99.90;;;;;;4990444;28;20038;-71
2021/12/02 12:50:21;;;;;;;8.93;6.80;;;11.20;99.90;;;;;;4971846;28;20288;-69
2021/12/02 12:52:51;;;;;;;7.20;6.45;;;11.10;99.90;;;;;;4986291;28;20050;-71
2021/12/02 12:55:18;;;;;;;8.68;7.10;;;11.10;99.90;;;;;;4989428;28;20419;-70
2021/12/02 12:58:15;;;;;;;15.80;8.32;;;11.00;99.90;;;;;;4993949;28;20457;-70
2021/12/02 13:00:43;;;;;;;16.33;8.00;;;10.90;99.90;;;;;;4995736;28;20033;-72
2021/12/02 13:03:16;;;;;;;10.30;8.38;;;10.80;99.90;;;;;;4990751;28;20504;-72
2021/12/02 13:05:49;;;;;;;13.52;8.32;;;10.70;99.90;;;;;;4993002;28;20045;-71
2021/12/02 13:08:15;;;;;;;;;;;10.60;99.90;;;;;;4991556;28;20499;-70
2021/12/02 13:11:01;;;;;;;11.45;7.35;;;10.50;99.90;;;;;;4991140;28;19910;-71
2021/12/02 13:13:33;;;;;;;10.07;6.95;;;10.50;99.90;;;;;;4992664;28;20053;-71
2021/12/02 13:16:30;;;;;;;7.90;6.75;;;10.50;99.90;;;;;;4989093;28;20023;-71
2021/12/02 13:19:11;;;;;;;9.18;5.53;;;10.50;99.90;;;;;;4985792;28;20046;-71